Time;durP1;ratioP1;P1;durP2;ratioP2;P2;SDS_P1;SDS_P2;PMS_P1;PMS_P2;Temp;Humidity;BMP_temperature;BMP_pressure;BME280_temperature;BME280_humidity;BME280_pressure;Samples;Min_cycle;Max_cycle;Signal;HPM_P1;HPM_P2
2021/10/09 00:00:30;;;;;;;0.47;0.32;;;;;;;7.43;100.00;98271.03;5034438;28;20087;-84
2021/10/09 00:02:56;;;;;;;1.77;0.38;;;;;;;7.53;100.00;98265.31;5017079;28;20032;-84
2021/10/09 00:05:21;;;;;;;0.28;0.28;;;;;;;7.52;100.00;98260.91;5032856;28;20112;-84
2021/10/09 00:07:47;;;;;;;0.40;0.40;;;;;;;7.48;100.00;98264.59;5016795;28;20025;-84
2021/10/09 00:10:23;;;;;;;0.73;0.52;;;;;;;7.56;100.00;98266.97;5017172;28;20017;-84
2021/10/09 00:13:41;;;;;;;0.30;0.30;;;;;;;7.48;100.00;98269.03;5018416;28;20033;-83
2021/10/09 00:16:07;;;;;;;0.32;0.32;;;;;;;7.38;100.00;98251.72;5033638;28;20424;-84
2021/10/09 00:18:33;;;;;;;0.68;0.47;;;;;;;7.35;100.00;98259.81;5033598;28;20106;-83
2021/10/09 00:20:58;;;;;;;0.45;0.45;;;;;;;7.45;100.00;98255.84;5017133;28;20060;-84
2021/10/09 00:23:24;;;;;;;0.17;0.17;;;;;;;7.44;100.00;98256.78;5017125;28;20506;-84
2021/10/09 00:25:49;;;;;;;0.40;0.40;;;;;;;7.50;100.00;98268.09;5016250;28;20026;-83
2021/10/09 00:28:15;;;;;;;0.68;0.50;;;;;;;7.54;100.00;98263.47;5016929;28;20040;-83
2021/10/09 00:30:41;;;;;;;1.95;0.95;;;;;;;7.49;100.00;98254.81;5016869;28;20037;-84
2021/10/09 00:33:06;;;;;;;0.70;0.60;;;;;;;7.52;100.00;98252.03;5033253;28;20075;-83
2021/10/09 00:35:32;;;;;;;1.45;1.17;;;;;;;7.52;100.00;98249.38;5030707;28;20493;-83
2021/10/09 00:37:58;;;;;;;0.75;0.75;;;;;;;7.40;100.00;98255.16;5025054;28;20410;-84
2021/10/09 00:40:23;;;;;;;2.28;0.47;;;;;;;7.40;100.00;98249.84;5033874;28;20045;-83
2021/10/09 00:42:49;;;;;;;0.90;0.85;;;;;;;7.42;100.00;98238.22;5047603;28;20037;-83
2021/10/09 00:45:14;;;;;;;1.48;0.47;;;;;;;7.29;100.00;98226.28;5035835;28;20035;-85
2021/10/09 00:47:40;;;;;;;0.40;0.40;;;;;;;7.53;100.00;98253.78;5022769;28;20099;-85
2021/10/09 00:50:06;;;;;;;2.10;0.70;;;;;;;7.46;100.00;98242.50;5024139;28;20043;-85
2021/10/09 00:52:34;;;;;;;0.40;0.40;;;;;;;7.47;100.00;98246.91;5019445;28;20102;-84
2021/10/09 00:55:04;;;;;;;0.30;0.30;;;;;;;7.40;100.00;98250.72;5019178;28;20037;-85
2021/10/09 00:57:30;;;;;;;0.82;0.82;;;;;;;7.37;100.00;98239.31;5019619;28;20071;-84
2021/10/09 00:59:59;;;;;;;1.05;0.95;;;;;;;7.33;100.00;98243.00;5019571;28;20462;-85
2021/10/09 01:02:25;;;;;;;2.50;2.30;;;;;;;7.28;100.00;98231.69;5026257;28;20032;-83
2021/10/09 01:04:51;;;;;;;1.40;0.80;;;;;;;7.24;100.00;98243.34;5026591;28;20021;-83
2021/10/09 01:07:17;;;;;;;0.80;0.47;;;;;;;7.11;100.00;98231.47;5030126;28;20025;-83
2021/10/09 01:09:45;;;;;;;0.40;0.40;;;;;;;7.12;100.00;98235.84;5031022;28;20021;-84
2021/10/09 01:12:12;;;;;;;1.17;1.08;;;;;;;7.05;100.00;98222.75;5029718;28;20052;-84
2021/10/09 01:14:38;;;;;;;3.97;0.80;;;;;;;7.16;100.00;98221.50;5026398;28;20565;-84
2021/10/09 01:17:03;;;;;;;0.22;0.22;;;;;;;7.22;100.00;98229.25;5024804;28;20115;-84
2021/10/09 01:19:29;;;;;;;0.45;0.45;;;;;;;7.05;100.00;98222.75;5030320;28;20033;-83
2021/10/09 01:21:55;;;;;;;0.85;0.45;;;;;;;7.16;100.00;98229.50;5036426;28;20028;-85
2021/10/09 01:24:21;;;;;;;0.85;0.82;;;;;;;7.24;100.00;98230.06;5024881;28;20048;-85
2021/10/09 01:26:47;;;;;;;0.28;0.28;;;;;;;7.25;100.00;98223.81;5023488;28;20111;-85
2021/10/09 01:29:14;;;;;;;0.82;0.82;;;;;;;7.12;100.00;98212.78;5026604;28;20025;-86
2021/10/09 01:31:39;;;;;;;0.60;0.60;;;;;;;7.15;100.00;98217.97;5019035;28;20029;-85
2021/10/09 01:34:05;;;;;;;0.93;0.68;;;;;;;7.23;100.00;98228.34;5044171;28;20106;-85
2021/10/09 01:36:36;;;;;;;0.88;0.70;;;;;;;7.27;100.00;98235.25;5022085;28;20466;-85
2021/10/09 01:39:04;;;;;;;0.45;0.45;;;;;;;7.20;100.00;98225.78;5022530;28;20039;-86
2021/10/09 01:41:30;;;;;;;0.50;0.50;;;;;;;7.20;100.00;98225.78;5035486;28;20488;-85
2021/10/09 01:43:56;;;;;;;6.50;0.90;;;;;;;7.15;100.00;98217.09;5027737;28;20040;-85
2021/10/09 01:46:21;;;;;;;1.60;1.02;;;;;;;7.17;100.00;98232.06;5028557;28;20025;-85
2021/10/09 01:48:47;;;;;;;1.23;1.13;;;;;;;7.14;100.00;98234.00;5024557;28;20114;-85
2021/10/09 01:51:13;;;;;;;0.40;0.40;;;;;;;7.12;100.00;98225.19;5027847;28;20025;-86
2021/10/09 01:53:40;;;;;;;3.83;1.80;;;;;;;7.06;100.00;98231.63;5035148;28;20036;-86
2021/10/09 01:56:06;;;;;;;1.35;1.10;;;;;;;7.21;100.00;98232.84;5026698;28;20025;-85
2021/10/09 01:58:32;;;;;;;0.28;0.20;;;;;;;7.27;100.00;98224.63;5041698;28;20475;-86
2021/10/09 02:00:58;;;;;;;0.52;0.52;;;;;;;7.32;100.00;98228.00;5018361;28;20089;-85
2021/10/09 02:03:29;;;;;;;0.63;0.63;;;;;;;7.25;100.00;98222.03;5018494;28;20036;-85
2021/10/09 02:05:54;;;;;;;1.02;0.95;;;;;;;7.30;100.00;98230.69;5022885;28;20033;-85
2021/10/09 02:08:20;;;;;;;0.10;0.10;;;;;;;7.21;100.00;98235.50;5043852;28;20029;-85
2021/10/09 02:13:24;;;;;;;0.45;0.45;;;;;;;7.21;100.00;98239.03;5034435;28;20036;-85
2021/10/09 02:16:03;;;;;;;0.95;0.75;;;;;;;7.17;100.00;98236.56;5028650;28;20032;-86
2021/10/09 02:26:22;;;;;;;2.15;1.83;;;;;;;7.18;100.00;98243.59;5040386;28;20143;-84
2021/10/09 02:28:48;;;;;;;0.73;0.73;;;;;;;7.20;100.00;98239.09;5045822;28;20063;-84
2021/10/09 02:31:13;;;;;;;0.68;0.68;;;;;;;7.20;100.00;98241.75;5030373;28;20031;-85
2021/10/09 02:33:39;;;;;;;2.17;0.90;;;;;;;7.16;100.00;98234.81;5025087;28;20033;-85
2021/10/09 02:36:05;;;;;;;1.05;0.63;;;;;;;7.22;100.00;98239.91;5028006;28;20045;-85
2021/10/09 02:38:30;;;;;;;1.42;0.77;;;;;;;7.21;100.00;98248.78;5026212;28;20049;-85
2021/10/09 02:41:05;;;;;;;1.05;0.57;;;;;;;7.20;100.00;98242.59;5029187;28;20043;-85
2021/10/09 02:43:31;;;;;;;0.30;0.30;;;;;;;7.17;100.00;98234.72;5034603;28;20029;-86
2021/10/09 02:45:56;;;;;;;4.05;1.45;;;;;;;7.23;100.00;98242.47;5018371;28;20029;-86
2021/10/09 02:48:22;;;;;;;0.25;0.25;;;;;;;7.25;100.00;98245.97;5033745;28;20055;-86
2021/10/09 02:50:48;;;;;;;0.68;0.68;;;;;;;7.28;100.00;98234.34;5026937;28;20029;-85
2021/10/09 02:53:13;;;;;;;0.73;0.73;;;;;;;7.24;100.00;98233.59;5027453;28;20449;-85
2021/10/09 02:55:39;;;;;;;1.30;0.60;;;;;;;7.22;100.00;98245.22;5029456;28;20028;-86
2021/10/09 02:58:04;;;;;;;0.93;0.70;;;;;;;7.23;100.00;98237.16;5029690;28;20115;-86
2021/10/09 03:00:30;;;;;;;0.70;0.70;;;;;;;7.24;100.00;98243.34;5027589;28;20507;-86
2021/10/09 03:02:56;;;;;;;1.20;0.57;;;;;;;7.16;100.00;98240.13;5022568;28;20028;-85
2021/10/09 03:05:21;;;;;;;0.65;0.65;;;;;;;7.09;100.00;98234.16;5027676;28;20523;-85
2021/10/09 03:07:47;;;;;;;0.47;0.47;;;;;;;7.11;100.00;98236.78;5021861;28;20029;-85
2021/10/09 03:10:13;;;;;;;1.05;0.90;;;;;;;7.03;100.00;98234.41;5025608;28;20029;-85
2021/10/09 03:12:39;;;;;;;0.93;0.93;;;;;;;7.07;100.00;98230.69;5025911;28;20025;-85
2021/10/09 03:15:06;;;;;;;0.20;0.20;;;;;;;7.06;100.00;98239.59;5025290;28;20024;-85
2021/10/09 03:17:31;;;;;;;0.13;0.13;;;;;;;7.09;100.00;98240.34;5018528;28;20021;-85
2021/10/09 03:19:57;;;;;;;0.82;0.80;;;;;;;7.08;100.00;98237.75;5021448;28;20032;-86
2021/10/09 03:22:23;;;;;;;0.50;0.50;;;;;;;7.08;100.00;98241.28;5023172;28;20117;-71
2021/10/09 03:24:49;;;;;;;0.32;0.32;;;;;;;7.06;100.00;98232.50;5041618;28;20063;-85
2021/10/09 03:27:14;;;;;;;0.75;0.40;;;;;;;6.97;100.00;98234.63;5043983;28;20029;-84
2021/10/09 03:29:40;;;;;;;1.20;0.70;;;;;;;7.08;100.00;98235.06;5025296;28;20066;-84
2021/10/09 03:32:06;;;;;;;1.15;1.05;;;;;;;7.11;100.00;98242.09;5012205;28;20413;-85
2021/10/09 03:34:35;;;;;;;0.25;0.25;;;;;;;7.04;100.00;98222.84;5025883;28;20029;-84
2021/10/09 03:37:01;;;;;;;0.25;0.25;;;;;;;7.03;100.00;98224.63;5021847;28;20044;-85
2021/10/09 03:39:31;;;;;;;0.35;0.35;;;;;;;7.02;100.00;98228.19;5042379;28;20029;-84
2021/10/09 03:42:03;;;;;;;1.38;0.80;;;;;;;7.07;100.00;98242.19;5033615;28;20067;-84
2021/10/09 03:44:32;;;;;;;0.45;0.45;;;;;;;7.05;100.00;98238.72;5018230;28;20029;-84
2021/10/09 03:47:02;;;;;;;1.48;0.52;;;;;;;7.09;100.00;98239.47;5037879;28;20091;-84
2021/10/09 03:49:49;;;;;;;0.60;0.60;;;;;;;7.14;100.00;98236.66;5033868;28;20056;-84
2021/10/09 03:54:49;;;;;;;0.60;0.60;;;;;;;7.19;100.00;98242.66;5045209;28;20033;-84
2021/10/09 03:57:15;;;;;;;0.43;0.38;;;;;;;7.14;100.00;98226.03;5019057;28;20184;-84
2021/10/09 03:59:40;;;;;;;4.47;1.38;;;;;;;7.21;100.00;98238.16;5027677;28;20522;-85
2021/10/09 04:02:06;;;;;;;0.75;0.68;;;;;;;7.11;100.00;98215.50;5023612;28;20407;-85
2021/10/09 04:04:31;;;;;;;0.85;0.65;;;;;;;7.23;100.00;98234.50;5023705;28;20029;-85
2021/10/09 04:06:57;;;;;;;5.50;0.57;;;;;;;7.17;100.00;98231.22;5044222;28;20037;-85
2021/10/09 04:09:23;;;;;;;0.32;0.32;;;;;;;7.20;100.00;98233.78;5017249;28;20037;-85
2021/10/09 04:11:48;;;;;;;1.27;0.75;;;;;;;7.27;100.00;98237.91;5019621;28;20446;-86
2021/10/09 04:14:14;;;;;;;0.68;0.32;;;;;;;7.31;100.00;98232.44;5025858;28;20036;-86
2021/10/09 04:16:39;;;;;;;1.25;0.93;;;;;;;7.26;100.00;98222.91;5019360;28;20032;-85
2021/10/09 04:19:05;;;;;;;1.42;1.30;;;;;;;7.29;100.00;98238.75;5042378;28;20039;-86
2021/10/09 04:21:31;;;;;;;0.70;0.70;;;;;;;7.19;100.00;98232.91;5020868;28;20029;-85
2021/10/09 04:23:56;;;;;;;0.80;0.43;;;;;;;7.14;100.00;98224.22;5036869;28;20120;-85
2021/10/09 04:26:22;;;;;;;0.55;0.55;;;;;;;7.17;100.00;98247.19;5026426;28;20032;-85
2021/10/09 04:28:48;;;;;;;0.30;0.30;;;;;;;7.23;100.00;98246.97;5028172;28;20033;-85
2021/10/09 04:31:13;;;;;;;3.17;1.48;;;;;;;7.17;100.00;98247.19;5033977;28;20028;-85
2021/10/09 04:33:39;;;;;;;0.45;0.30;;;;;;;7.18;100.00;98243.59;5025051;28;20120;-85
2021/10/09 04:36:04;;;;;;;0.30;0.30;;;;;;;7.17;100.00;98237.41;5009595;28;20127;-84
2021/10/09 04:38:33;;;;;;;0.98;0.90;;;;;;;7.27;100.00;98253.88;5016838;28;20029;-85
2021/10/09 04:40:58;;;;;;;1.15;0.43;;;;;;;7.29;100.00;98252.06;5017021;28;20033;-86
2021/10/09 04:43:24;;;;;;;0.50;0.50;;;;;;;7.26;100.00;98254.84;5017696;28;20029;-85
2021/10/09 04:45:49;;;;;;;1.67;1.20;;;;;;;7.25;100.00;98242.44;5049917;28;20029;-85
2021/10/09 04:48:15;;;;;;;1.35;1.20;;;;;;;7.21;100.00;98241.69;5016951;28;20048;-87
2021/10/09 04:50:41;;;;;;;0.22;0.22;;;;;;;7.18;100.00;98244.47;5034797;28;20051;-86
2021/10/09 04:53:06;;;;;;;0.35;0.25;;;;;;;7.18;100.00;98251.56;5033876;28;20028;-86
2021/10/09 04:55:32;;;;;;;0.25;0.25;;;;;;;7.19;100.00;98261.31;5017383;28;20032;-86
2021/10/09 04:57:57;;;;;;;0.40;0.40;;;;;;;7.17;100.00;98256.03;5033461;28;20018;-87
2021/10/09 05:00:23;;;;;;;0.40;0.32;;;;;;;7.19;100.00;98261.31;5032590;28;20104;-86
2021/10/09 05:02:48;;;;;;;0.82;0.63;;;;;;;7.24;100.00;98254.00;5033778;28;20484;-85
2021/10/09 05:05:14;;;;;;;0.28;0.28;;;;;;;7.30;100.00;98272.41;5019361;28;20033;-86
2021/10/09 05:07:40;;;;;;;0.45;0.45;;;;;;;7.30;100.00;98261.75;5023179;28;20069;-85
2021/10/09 05:10:08;;;;;;;0.82;0.82;;;;;;;7.26;100.00;98265.47;5034341;28;20390;-84
2021/10/09 05:12:35;;;;;;;0.20;0.20;;;;;;;7.26;100.00;98257.50;5016779;28;20108;-85
2021/10/09 05:15:00;;;;;;;1.58;1.05;;;;;;;7.18;100.00;98259.56;5015760;28;20129;-84
2021/10/09 05:17:26;;;;;;;1.13;0.73;;;;;;;7.23;100.00;98257.59;5015965;28;20469;-85
2021/10/09 05:19:51;;;;;;;0.60;0.47;;;;;;;7.34;100.00;98266.03;5032896;28;20128;-85
2021/10/09 05:22:17;;;;;;;1.90;1.42;;;;;;;7.23;100.00;98247.81;5054263;28;20040;-85
2021/10/09 05:24:43;;;;;;;0.47;0.40;;;;;;;7.29;100.00;98255.56;5037733;28;20044;-84
2021/10/09 05:27:10;;;;;;;0.32;0.32;;;;;;;7.31;100.00;98268.81;5013275;28;20030;-86
2021/10/09 05:29:35;;;;;;;6.10;1.13;;;;;;;7.34;100.00;98266.91;5020840;28;20064;-84
2021/10/09 05:32:05;;;;;;;0.20;0.20;;;;;;;7.35;100.00;98270.44;5015605;28;20033;-85
2021/10/09 05:34:31;;;;;;;1.02;0.90;;;;;;;7.29;100.00;98273.34;5017031;28;20134;-85
2021/10/09 05:36:58;;;;;;;1.15;0.88;;;;;;;7.26;100.00;98273.47;5034864;28;20456;-85
2021/10/09 05:39:23;;;;;;;0.55;0.55;;;;;;;7.31;100.00;98277.69;5015928;28;20147;-85
2021/10/09 05:41:49;;;;;;;0.75;0.75;;;;;;;7.34;100.00;98277.56;5015573;28;20498;-85
2021/10/09 05:44:15;;;;;;;0.85;0.82;;;;;;;7.35;100.00;98281.94;5015506;28;20103;-85
2021/10/09 05:46:40;;;;;;;1.85;0.98;;;;;;;7.31;100.00;98272.34;5015545;28;20021;-85
2021/10/09 05:49:06;;;;;;;0.82;0.82;;;;;;;7.41;100.00;98278.22;5015813;28;20025;-86
2021/10/09 05:51:35;;;;;;;2.58;1.38;;;;;;;7.44;100.00;98283.41;5014894;28;20075;-85
2021/10/09 05:59:48;;;;;;;0.88;0.68;;;;;;;7.34;100.00;98287.34;5025863;28;20104;-86
2021/10/09 06:51:06;;;;;;;0.65;0.40;;;;;;;7.76;100.00;98314.13;5035500;28;20132;-71
2021/10/09 07:01:44;;;;;;;0.70;0.70;;;;;;;7.82;100.00;98316.53;5038388;28;20052;-71
2021/10/09 07:04:10;;;;;;;0.95;0.95;;;;;;;7.85;100.00;98322.63;5034914;28;20026;-70
2021/10/09 07:06:35;;;;;;;0.82;0.82;;;;;;;7.84;100.00;98320.91;5032450;28;20129;-71
2021/10/09 07:09:01;;;;;;;0.65;0.55;;;;;;;7.88;100.00;98326.94;5024477;28;20025;-70
2021/10/09 07:11:27;;;;;;;2.97;2.30;;;;;;;7.74;100.00;98334.63;5033959;28;20029;-72
2021/10/09 07:13:52;;;;;;;1.65;0.85;;;;;;;7.97;100.00;98330.13;5018994;28;20439;-72
2021/10/09 07:16:18;;;;;;;1.10;0.70;;;;;;;8.01;100.00;98337.09;5033192;28;20461;-74
2021/10/09 07:18:44;;;;;;;1.38;0.93;;;;;;;8.16;100.00;98347.13;5034481;28;20035;-71
2021/10/09 07:21:09;;;;;;;0.28;0.28;;;;;;;8.20;100.00;98331.91;5020906;28;20124;-72
2021/10/09 07:23:37;;;;;;;1.02;0.95;;;;;;;8.22;100.00;98339.81;5014593;28;20029;-72
2021/10/09 07:26:03;;;;;;;1.15;0.75;;;;;;;8.25;100.00;98332.56;5021204;28;20071;-71
2021/10/09 07:28:28;;;;;;;0.55;0.55;;;;;;;8.26;100.00;98337.00;5029778;28;20029;-72
2021/10/09 07:30:55;;;;;;;0.57;0.57;;;;;;;8.24;100.00;98336.19;5033324;28;20040;-72
2021/10/09 07:33:20;;;;;;;0.90;0.38;;;;;;;7.95;100.00;98297.38;5024606;28;20036;-72
2021/10/09 07:35:46;;;;;;;2.25;1.20;;;;;;;8.16;100.00;98339.16;5032204;28;20033;-72
2021/10/09 07:38:14;;;;;;;0.28;0.28;;;;;;;7.97;100.00;98338.13;5031906;28;20090;-72
2021/10/09 07:40:39;;;;;;;0.50;0.50;;;;;;;8.03;100.00;98337.00;5030289;28;20064;-72
2021/10/09 07:43:05;;;;;;;9.30;0.65;;;;;;;8.05;100.00;98336.06;5048502;28;20476;-72
2021/10/09 07:45:30;;;;;;;0.75;0.60;;;;;;;8.05;100.00;98341.38;5046739;28;20105;-71
2021/10/09 07:47:56;;;;;;;2.58;1.50;;;;;;;8.06;100.00;98337.75;5009899;28;20067;-72
2021/10/09 07:50:22;;;;;;;1.10;1.02;;;;;;;7.93;100.00;98325.88;5030288;28;20028;-71
2021/10/09 07:52:47;;;;;;;2.72;1.45;;;;;;;8.03;100.00;98334.34;5030242;28;20123;-72
2021/10/09 07:55:13;;;;;;;0.70;0.52;;;;;;;7.99;100.00;98333.63;5029243;28;20025;-73
2021/10/09 07:57:38;;;;;;;1.02;0.80;;;;;;;7.99;100.00;98333.63;5039055;28;20036;-72
2021/10/09 08:00:05;;;;;;;2.80;0.70;;;;;;;8.08;100.00;98341.25;5033783;28;20476;-73
2021/10/09 08:02:32;;;;;;;0.22;0.22;;;;;;;8.06;100.00;98335.09;5022069;28;20029;-72
2021/10/09 08:04:58;;;;;;;2.55;1.05;;;;;;;8.00;100.00;98332.69;5014007;28;20032;-72
2021/10/09 08:07:23;;;;;;;0.82;0.77;;;;;;;8.04;100.00;98338.75;5035698;28;20029;-71
2021/10/09 08:09:49;;;;;;;0.38;0.20;;;;;;;8.04;100.00;98336.09;5051448;28;20043;-72
2021/10/09 08:12:14;;;;;;;0.25;0.25;;;;;;;8.12;100.00;98340.19;5020712;28;20055;-71
2021/10/09 08:14:40;;;;;;;0.20;0.20;;;;;;;7.90;100.00;98323.34;5034922;28;20037;-71
2021/10/09 08:17:05;;;;;;;0.73;0.73;;;;;;;8.03;100.00;98334.34;5033710;28;20068;-72
2021/10/09 08:19:31;;;;;;;0.70;0.70;;;;;;;8.00;100.00;98338.00;5043380;28;20021;-72
2021/10/09 08:22:00;;;;;;;0.93;0.73;;;;;;;8.06;100.00;98337.75;5040892;28;20048;-71
2021/10/09 08:40:15;;;;;;;0.47;0.47;;;;;;;8.42;100.00;98353.25;5036043;28;20059;-72
2021/10/09 08:42:42;;;;;;;0.40;0.40;;;;;;;8.53;100.00;98364.34;5016957;28;20083;-73
2021/10/09 08:45:08;;;;;;;0.35;0.20;;;;;;;8.47;100.00;98345.94;5033557;28;20025;-73
2021/10/09 08:47:36;;;;;;;0.65;0.50;;;;;;;8.39;100.00;98356.06;5047319;28;20033;-73
2021/10/09 08:50:05;;;;;;;0.30;0.30;;;;;;;8.48;100.00;98359.22;5049508;28;20025;-72
2021/10/09 08:52:31;;;;;;;2.20;0.95;;;;;;;8.53;100.00;98367.00;5020538;28;20360;-72
2021/10/09 08:54:58;;;;;;;1.48;0.50;;;;;;;8.36;100.00;98358.84;5033004;28;20036;-71
2021/10/09 08:57:26;;;;;;;0.20;0.20;;;;;;;8.39;100.00;98364.06;5033300;28;20086;-72
2021/10/09 09:00:00;;;;;;;1.05;0.73;;;;;;;8.40;100.00;98368.47;5035413;28;20053;-73
2021/10/09 09:02:33;;;;;;;1.35;1.13;;;;;;;8.17;100.00;98362.22;5033695;28;20037;-73
2021/10/09 09:07:50;;;;;;;0.50;0.50;;;;;;;8.16;100.00;98365.78;5037768;28;20035;-71
2021/10/09 09:32:14;;;;;;;2.08;0.88;;;;;;;8.41;100.00;98364.84;5046236;28;20035;-72
2021/10/09 09:40:17;;;;;;;0.70;0.70;;;;;;;8.34;100.00;98361.56;5028918;28;20029;-72
2021/10/09 09:42:52;;;;;;;0.45;0.45;;;;;;;8.45;100.00;98371.81;5012317;28;20033;-72
2021/10/09 09:45:26;;;;;;;0.32;0.32;;;;;;;8.44;100.00;98365.59;5027545;28;20496;-71
2021/10/09 09:47:57;;;;;;;0.43;0.43;;;;;;;8.43;100.00;98366.50;5029082;28;20026;-73
2021/10/09 09:50:23;;;;;;;0.20;0.20;;;;;;;8.34;100.00;98358.03;5009525;28;20025;-72
2021/10/09 09:52:49;;;;;;;0.77;0.75;;;;;;;8.44;100.00;98356.72;5027365;28;20492;-72
2021/10/09 09:55:17;;;;;;;0.73;0.73;;;;;;;8.54;100.00;98358.09;5028593;28;20032;-72
2021/10/09 09:57:43;;;;;;;1.17;1.08;;;;;;;8.49;100.00;98374.25;5011931;28;20103;-72
2021/10/09 10:00:11;;;;;;;2.90;1.05;;;;;;;8.44;100.00;98354.06;5028517;28;20029;-72
2021/10/09 10:02:43;;;;;;;1.20;0.75;;;;;;;8.47;100.00;98364.59;5028296;28;20139;-72
2021/10/09 10:05:10;;;;;;;0.95;0.95;;;;;;;8.55;100.00;98365.19;5027948;28;20030;-72
2021/10/09 10:07:35;;;;;;;1.33;0.55;;;;;;;8.58;100.00;98363.22;5010753;28;20112;-72
2021/10/09 10:10:03;;;;;;;0.70;0.70;;;;;;;8.61;100.00;98362.25;5040031;28;20128;-73
2021/10/09 10:12:29;;;;;;;3.85;1.90;;;;;;;8.56;100.00;98358.91;5029828;28;20025;-73
2021/10/09 10:14:55;;;;;;;15.10;1.95;;;;;;;8.52;100.00;98351.97;5029542;28;20028;-72
2021/10/09 10:17:44;;;;;;;3.25;2.45;;;;;;;8.57;100.00;98357.97;5030111;28;20055;-71
2021/10/09 10:20:20;;;;;;;1.17;1.08;;;;;;;8.50;100.00;98360.03;5014127;28;20041;-73
2021/10/09 10:22:48;;;;;;;0.98;0.93;;;;;;;8.62;100.00;98363.97;5013876;28;20484;-72
2021/10/09 10:25:43;;;;;;;4.95;2.97;;;;;;;8.70;100.00;98367.22;5027230;28;20037;-75
2021/10/09 10:28:13;;;;;;;0.77;0.55;;;;;;;8.67;100.00;98356.66;5017537;28;20041;-73
2021/10/09 10:30:45;;;;;;;0.68;0.60;;;;;;;8.78;100.00;98366.88;5011504;28;20630;-73
2021/10/09 10:33:11;;;;;;;0.70;0.68;;;;;;;8.78;100.00;98359.75;5009634;28;20099;-74
2021/10/09 10:35:36;;;;;;;2.53;1.33;;;;;;;8.88;100.00;98365.56;5029503;28;20037;-76
2021/10/09 10:38:06;;;;;;;6.07;2.15;;;;;;;8.67;100.00;98362.00;5028980;28;20045;-72
2021/10/09 10:40:51;;;;;;;1.38;1.02;;;;;;;8.64;100.00;98362.13;5028669;28;20029;-72
2021/10/09 10:46:07;;;;;;;1.52;1.42;;;;;;;8.79;100.00;98361.50;5030424;28;20122;-73
2021/10/09 10:49:37;;;;;;;2.65;1.40;;;;;;;8.65;100.00;98350.50;5028713;28;20041;-72
2021/10/09 10:54:16;;;;;;;1.63;1.17;;;;;;;8.78;100.00;98365.09;5029786;28;20106;-73
2021/10/09 10:57:05;;;;;;;1.50;1.38;;;;;;;8.87;100.00;98354.03;5012666;28;20500;-74
2021/10/09 10:59:49;;;;;;;0.75;0.75;;;;;;;9.01;100.00;98356.97;5028263;28;20033;-73
2021/10/09 11:02:22;;;;;;;1.23;1.00;;;;;;;8.78;100.00;98356.22;5028389;28;20029;-73
2021/10/09 11:05:02;;;;;;;0.52;0.52;;;;;;;8.84;100.00;98350.63;5010883;28;20044;-74
2021/10/09 11:07:30;;;;;;;1.48;0.60;;;;;;;8.97;100.00;98355.38;5043579;28;20029;-73
2021/10/09 11:10:08;;;;;;;1.38;1.10;;;;;;;8.90;100.00;98358.34;5011066;28;20067;-73
2021/10/09 11:12:38;;;;;;;0.70;0.70;;;;;;;8.75;100.00;98354.53;5027506;28;20801;-73
2021/10/09 11:15:08;;;;;;;2.20;1.13;;;;;;;8.75;100.00;98359.00;5011113;28;20033;-72
2021/10/09 11:17:39;;;;;;;3.08;1.42;;;;;;;8.67;100.00;98354.84;5027165;28;20140;-72
2021/10/09 11:20:10;;;;;;;1.58;0.73;;;;;;;8.55;100.00;98349.19;4995086;28;20068;-74
2021/10/09 11:22:40;;;;;;;0.60;0.60;;;;;;;8.67;100.00;98352.19;5011222;28;20033;-72
2021/10/09 11:25:06;;;;;;;0.90;0.68;;;;;;;8.56;100.00;98346.44;5027419;28;20029;-73
2021/10/09 11:27:37;;;;;;;0.47;0.47;;;;;;;8.66;100.00;98344.25;5043807;28;20025;-73
2021/10/09 11:30:05;;;;;;;2.10;1.90;;;;;;;8.67;100.00;98348.69;5030600;28;20561;-73
2021/10/09 11:32:36;;;;;;;0.77;0.77;;;;;;;8.77;100.00;98351.81;5033507;28;20439;-75
2021/10/09 11:35:03;;;;;;;0.47;0.47;;;;;;;8.85;100.00;98347.91;5032145;28;20454;-73
2021/10/09 11:37:29;;;;;;;0.63;0.50;;;;;;;8.89;100.00;98343.31;5020238;28;20053;-73
2021/10/09 11:39:57;;;;;;;2.35;0.93;;;;;;;8.64;100.00;98344.31;5018789;28;20466;-73
2021/10/09 11:42:27;;;;;;;3.65;1.77;;;;;;;8.63;100.00;98341.72;5024764;28;20022;-73
2021/10/09 11:45:00;;;;;;;1.40;1.30;;;;;;;8.74;100.00;98344.78;5039373;28;20035;-73
2021/10/09 11:53:28;;;;;;;4.85;1.70;;;;;;;8.84;100.00;98342.59;5039215;28;20108;-74
2021/10/09 11:53:49;;;;;;;4.65;2.95;;;;;;;8.77;100.00;98339.34;5041015;28;20108;-74
2021/10/09 11:56:00;;;;;;;6.72;3.75;;;;;;;8.69;100.00;98345.00;5034945;28;20145;-74
2021/10/09 11:58:25;;;;;;;;;;;;;;;8.70;100.00;98340.53;5034239;28;20025;-73
2021/10/09 12:00:51;;;;;;;2.38;1.88;;;;;;;8.62;100.00;98345.31;5034992;28;19913;-74
2021/10/09 12:03:26;;;;;;;3.33;2.03;;;;;;;8.66;100.00;98344.25;5030974;28;20033;-73
2021/10/09 12:05:53;;;;;;;0.55;0.50;;;;;;;8.51;100.00;98339.56;5042700;28;20476;-74
2021/10/09 12:08:24;;;;;;;1.45;0.90;;;;;;;8.41;100.00;98332.84;5036221;28;20236;-74
2021/10/09 12:11:10;;;;;;;2.22;1.10;;;;;;;8.53;100.00;98343.03;5023647;28;20048;-74
2021/10/09 12:13:54;;;;;;;0.63;0.63;;;;;;;8.58;100.00;98336.56;5017396;28;20048;-75
2021/10/09 12:16:42;;;;;;;4.85;1.15;;;;;;;8.60;100.00;98331.19;5018033;28;20055;-73
2021/10/09 12:19:35;;;;;;;0.75;0.75;;;;;;;8.45;100.00;98340.69;5038645;28;20549;-74
2021/10/09 12:22:14;;;;;;;1.35;0.75;;;;;;;8.30;100.00;98340.44;5039488;28;20046;-73
2021/10/09 12:24:53;;;;;;;1.00;1.00;;;;;;;8.39;100.00;98348.94;5023653;28;20523;-73
2021/10/09 12:27:21;;;;;;;1.85;1.27;;;;;;;8.45;100.00;98335.34;5029107;28;20028;-74
2021/10/09 12:30:08;;;;;;;0.43;0.43;;;;;;;8.67;100.00;98336.19;5015716;28;20112;-74
2021/10/09 12:32:39;;;;;;;1.77;1.27;;;;;;;8.79;100.00;98347.28;5034059;28;20440;-73
2021/10/09 12:35:22;;;;;;;0.68;0.68;;;;;;;8.89;100.00;98345.97;5038472;28;20499;-73
2021/10/09 12:37:54;;;;;;;;;;;;;;;8.74;100.00;98339.47;5049557;28;20048;-73
2021/10/09 12:40:20;;;;;;;1.88;1.38;;;;;;;8.64;100.00;98332.78;5038601;28;19919;-73
2021/10/09 12:42:52;;;;;;;0.63;0.55;;;;;;;8.71;100.00;98337.78;5017543;28;20488;-73
2021/10/09 12:45:19;;;;;;;1.38;1.10;;;;;;;8.83;100.00;98328.41;5017027;28;20115;-73
2021/10/09 12:47:45;;;;;;;2.00;1.45;;;;;;;8.86;100.00;98338.09;5038396;28;20076;-73
2021/10/09 12:50:11;;;;;;;2.42;1.23;;;;;;;8.97;100.00;98338.50;5040136;28;20075;-74
2021/10/09 12:52:37;;;;;;;1.38;1.27;;;;;;;8.82;100.00;98324.03;5033732;28;20488;-75
2021/10/09 12:55:04;;;;;;;2.13;1.17;;;;;;;8.76;100.00;98318.94;5033407;28;20051;-74
2021/10/09 12:57:30;;;;;;;1.75;1.40;;;;;;;8.78;100.00;98325.06;5049963;28;20025;-74
2021/10/09 12:59:57;;;;;;;4.38;1.83;;;;;;;8.71;100.00;98336.91;5033276;28;20052;-74
2021/10/09 13:02:23;;;;;;;1.40;1.30;;;;;;;8.67;100.00;98330.00;5035534;28;20075;-74
2021/10/09 13:04:48;;;;;;;1.90;1.80;;;;;;;8.64;100.00;98333.63;5056291;28;20040;-73
2021/10/09 13:07:14;;;;;;;0.93;0.93;;;;;;;8.66;100.00;98341.59;5018174;28;20491;-75
2021/10/09 13:09:39;;;;;;;0.95;0.95;;;;;;;8.76;100.00;98337.63;5016917;28;20546;-75
2021/10/09 13:12:08;;;;;;;0.93;0.93;;;;;;;8.79;100.00;98340.16;5016429;28;20403;-74
2021/10/09 13:14:33;;;;;;;0.73;0.73;;;;;;;8.51;100.00;98339.56;5037261;28;20111;-73
2021/10/09 13:16:59;;;;;;;1.30;1.20;;;;;;;8.47;100.00;98349.47;5038375;28;20113;-74
2021/10/09 13:19:25;;;;;;;0.85;0.85;;;;;;;8.51;100.00;98340.44;5015806;28;20131;-74
2021/10/09 13:21:50;;;;;;;1.23;1.13;;;;;;;8.54;100.00;98336.78;5016044;28;20491;-74
2021/10/09 13:24:16;;;;;;;1.35;0.50;;;;;;;8.63;100.00;98353.25;5032499;28;20047;-73
2021/10/09 13:26:42;;;;;;;0.52;0.52;;;;;;;8.59;100.00;98343.63;5036583;28;20033;-74
2021/10/09 13:29:07;;;;;;;0.55;0.52;;;;;;;8.52;100.00;98341.31;5032413;28;20032;-72
2021/10/09 13:31:33;;;;;;;1.73;0.95;;;;;;;8.55;100.00;98346.50;5034946;28;20032;-73
2021/10/09 13:33:59;;;;;;;1.20;0.95;;;;;;;8.68;100.00;98358.38;5031933;28;20078;-73
2021/10/09 13:36:25;;;;;;;0.98;0.90;;;;;;;8.63;100.00;98358.59;5015314;28;20087;-73
2021/10/09 13:38:51;;;;;;;0.82;0.82;;;;;;;8.65;100.00;98355.84;5050082;28;20035;-73
2021/10/09 13:41:17;;;;;;;1.02;0.98;;;;;;;8.56;100.00;98358.91;5025206;28;20132;-74
2021/10/09 13:43:43;;;;;;;1.27;0.98;;;;;;;8.66;100.00;98361.13;5019536;28;20132;-73
2021/10/09 13:46:08;;;;;;;1.83;1.35;;;;;;;8.67;100.00;98360.19;5015522;28;20095;-73
2021/10/09 13:48:34;;;;;;;3.60;1.50;;;;;;;8.68;100.00;98361.06;5015184;28;20036;-76